createdAt,value
2023-06-10T00:00:31.821Z,14.52
2023-06-10T00:02:58.666Z,8.25
2023-06-10T00:05:25.453Z,9.55
2023-06-10T00:07:52.107Z,9.18
2023-06-10T00:10:18.971Z,9.75
2023-06-10T00:12:45.781Z,10.05
2023-06-10T00:15:13.005Z,9.35
2023-06-10T00:17:40.457Z,9.95
2023-06-10T00:20:14.813Z,9.65
2023-06-10T00:22:42.963Z,11.38
2023-06-10T00:25:10.694Z,9.93
2023-06-10T00:27:37.739Z,8.85
2023-06-10T00:30:07.925Z,7.95
2023-06-10T00:32:35.741Z,10.27
2023-06-10T00:35:02.989Z,9.80
2023-06-10T00:37:30.354Z,9.05
2023-06-10T00:39:57.263Z,9.43
2023-06-10T00:42:25.478Z,10.98
2023-06-10T00:44:52.752Z,10.38
2023-06-10T00:47:20.003Z,9.20
2023-06-10T00:49:48.556Z,10.85
2023-06-10T00:52:17.132Z,8.90
2023-06-10T00:54:44.804Z,10.35
2023-06-10T00:57:14.177Z,9.50
2023-06-10T00:59:42.832Z,9.60
2023-06-10T01:02:10.506Z,9.38
2023-06-10T01:04:38.245Z,9.23
2023-06-10T01:07:23.296Z,8.77
2023-06-10T01:09:53.062Z,8.63
2023-06-10T01:12:57.517Z,9.05
2023-06-10T01:15:35.768Z,10.85
2023-06-10T01:18:11.158Z,9.18
2023-06-10T01:20:41.921Z,8.60
2023-06-10T01:23:09.568Z,9.75
2023-06-10T01:25:41.863Z,11.15
2023-06-10T01:28:12.659Z,8.27
2023-06-10T01:30:53.021Z,8.35
2023-06-10T01:33:27.916Z,8.25
2023-06-10T01:38:24.422Z,8.25
2023-06-10T01:40:53.728Z,8.73
2023-06-10T01:43:22.124Z,9.90
2023-06-10T01:45:49.081Z,10.25
2023-06-10T01:48:15.867Z,9.23
2023-06-10T01:50:42.583Z,9.55
2023-06-10T01:53:09.275Z,9.60
2023-06-10T01:55:35.986Z,8.30
2023-06-10T01:58:02.710Z,10.55
2023-06-10T02:00:29.504Z,9.65
2023-06-10T02:02:56.434Z,10.55
2023-06-10T02:05:24.065Z,10.02
2023-06-10T02:07:51.216Z,8.38
2023-06-10T02:10:18.029Z,8.70
2023-06-10T02:12:44.697Z,11.15
2023-06-10T02:15:11.564Z,10.57
2023-06-10T02:17:38.857Z,9.75
2023-06-10T02:20:08.505Z,9.98
2023-06-10T02:22:36.241Z,10.73
2023-06-10T02:25:02.895Z,9.18
2023-06-10T02:27:29.646Z,9.82
2023-06-10T02:29:56.389Z,9.38
2023-06-10T02:32:23.416Z,7.90
2023-06-10T02:34:50.463Z,9.18
2023-06-10T02:37:17.714Z,9.57
2023-06-10T02:39:44.587Z,9.18
2023-06-10T02:42:12.093Z,9.25
2023-06-10T02:44:39.151Z,8.43
2023-06-10T02:47:06.332Z,9.80
2023-06-10T02:49:33.069Z,9.40
2023-06-10T02:52:09.188Z,9.27
2023-06-10T02:54:37.035Z,10.05
2023-06-10T02:57:11.125Z,8.57
2023-06-10T02:59:37.879Z,10.60
2023-06-10T03:02:05.024Z,12.50
2023-06-10T03:04:31.876Z,9.93
2023-06-10T03:06:58.679Z,8.25
2023-06-10T03:09:25.484Z,10.43
2023-06-10T03:11:52.204Z,10.38
2023-06-10T03:14:18.990Z,10.35
2023-06-10T03:16:46.690Z,10.38
2023-06-10T03:19:13.505Z,8.88
2023-06-10T03:21:42.773Z,11.75
2023-06-10T03:24:09.621Z,9.52
2023-06-10T03:26:36.324Z,9.60
2023-06-10T03:29:03.241Z,10.82
2023-06-10T03:31:30.691Z,11.57
2023-06-10T03:33:57.600Z,9.77
2023-06-10T03:36:24.322Z,14.10
2023-06-10T03:38:53.060Z,12.82
2023-06-10T03:41:22.418Z,12.82
2023-06-10T03:43:49.154Z,14.43
2023-06-10T03:46:16.123Z,16.00
2023-06-10T03:48:43.677Z,9.88
2023-06-10T03:51:11.072Z,8.73
2023-06-10T03:53:37.753Z,10.55
2023-06-10T03:56:04.633Z,9.35
2023-06-10T03:58:31.349Z,11.93
2023-06-10T04:00:58.114Z,10.88
2023-06-10T04:03:25.168Z,10.07
2023-06-10T04:05:52.282Z,14.30
2023-06-10T04:08:19.165Z,12.10
2023-06-10T04:10:46.067Z,12.00
2023-06-10T04:13:12.798Z,11.10
2023-06-10T04:15:39.458Z,12.05
2023-06-10T04:18:06.308Z,11.98
2023-06-10T04:20:33.318Z,11.02
2023-06-10T04:23:00.866Z,16.17
2023-06-10T04:25:28.307Z,10.63
2023-06-10T04:27:56.224Z,11.05
2023-06-10T04:30:23.080Z,10.48
2023-06-10T04:32:50.266Z,8.45
2023-06-10T04:35:17.279Z,9.82
2023-06-10T04:37:44.061Z,8.68
2023-06-10T04:40:11.696Z,11.65
2023-06-10T04:42:38.651Z,10.80
2023-06-10T04:45:05.868Z,11.65
2023-06-10T04:47:35.451Z,9.07
2023-06-10T04:50:03.832Z,9.10
2023-06-10T04:52:30.550Z,10.52
2023-06-10T04:54:59.551Z,13.95
2023-06-10T04:57:27.286Z,9.45
2023-06-10T04:59:54.431Z,9.02
2023-06-10T05:02:21.345Z,8.68
2023-06-10T05:04:48.214Z,10.23
2023-06-10T05:07:14.911Z,9.68
2023-06-10T05:09:41.629Z,8.90
2023-06-10T05:12:10.163Z,9.85
2023-06-10T05:14:36.943Z,9.63
2023-06-10T05:17:03.848Z,11.18
2023-06-10T05:19:30.714Z,9.63
2023-06-10T05:21:57.421Z,12.05
2023-06-10T05:24:24.489Z,10.52
2023-06-10T05:26:51.374Z,10.52
2023-06-10T05:29:18.154Z,9.30
2023-06-10T05:31:45.069Z,11.20
2023-06-10T05:34:12.080Z,8.93
2023-06-10T05:36:38.926Z,12.05
2023-06-10T05:39:05.675Z,10.93
2023-06-10T05:41:32.413Z,11.25
2023-06-10T05:43:59.117Z,9.43
2023-06-10T05:46:26.029Z,10.02
2023-06-10T05:48:54.421Z,10.45
2023-06-10T05:51:21.260Z,7.63
2023-06-10T05:53:48.028Z,7.15
2023-06-10T05:56:15.972Z,7.32
2023-06-10T05:58:42.774Z,6.75
2023-06-10T06:01:09.493Z,6.25
2023-06-10T06:03:37.578Z,5.88
2023-06-10T06:06:04.673Z,5.38
2023-06-10T06:08:31.887Z,5.65
2023-06-10T06:10:58.994Z,5.18
2023-06-10T06:13:25.744Z,7.10
2023-06-10T06:15:52.570Z,7.53
2023-06-10T06:18:19.921Z,5.20
2023-06-10T06:20:46.615Z,5.38
2023-06-10T06:23:13.329Z,5.93
2023-06-10T06:25:40.401Z,5.53
2023-06-10T06:28:08.648Z,4.65
2023-06-10T06:30:35.334Z,6.63
2023-06-10T06:33:02.585Z,7.20
2023-06-10T06:35:33.155Z,5.38
2023-06-10T06:38:00.103Z,6.50
2023-06-10T06:40:27.156Z,7.35
2023-06-10T06:42:54.228Z,6.95
2023-06-10T06:45:21.097Z,8.63
2023-06-10T06:47:47.898Z,6.10
2023-06-10T06:50:14.693Z,6.57
2023-06-10T06:52:41.516Z,5.68
2023-06-10T06:55:09.004Z,7.70
2023-06-10T06:57:35.864Z,6.45
2023-06-10T07:00:02.575Z,5.78
2023-06-10T07:02:29.333Z,14.00
2023-06-10T07:04:57.249Z,7.13
2023-06-10T07:07:24.108Z,6.13
2023-06-10T07:09:50.895Z,6.78
2023-06-10T07:12:18.907Z,6.82
2023-06-10T07:14:45.818Z,6.80
2023-06-10T07:17:12.670Z,6.30
2023-06-10T07:19:39.435Z,6.88
2023-06-10T07:22:06.678Z,6.95
2023-06-10T07:24:33.374Z,4.88
2023-06-10T07:27:00.027Z,5.63
2023-06-10T07:29:26.731Z,7.00
2023-06-10T07:31:54.636Z,6.78
2023-06-10T07:34:21.656Z,5.22
2023-06-10T07:36:49.310Z,5.90
2023-06-10T07:39:16.194Z,6.97
2023-06-10T07:41:42.966Z,5.35
2023-06-10T07:44:09.781Z,5.10
2023-06-10T07:46:36.654Z,7.18
2023-06-10T07:49:03.545Z,4.93
2023-06-10T07:51:30.468Z,5.72
2023-06-10T07:53:57.223Z,5.50
2023-06-10T07:56:24.974Z,5.88
2023-06-10T07:58:51.710Z,5.95
2023-06-10T08:01:18.440Z,6.05
2023-06-10T08:03:45.406Z,6.38
2023-06-10T08:06:12.830Z,6.38
2023-06-10T08:08:44.419Z,6.10
2023-06-10T08:11:14.929Z,8.75
2023-06-10T08:13:41.727Z,8.98
2023-06-10T08:16:08.874Z,6.65
2023-06-10T08:18:35.836Z,6.00
2023-06-10T08:21:02.540Z,6.82
2023-06-10T08:23:29.561Z,5.32
2023-06-10T08:25:56.275Z,5.45
2023-06-10T08:28:22.944Z,5.38
2023-06-10T08:30:49.999Z,5.45
2023-06-10T08:33:16.740Z,6.32
2023-06-10T08:35:43.538Z,7.20
2023-06-10T08:38:10.441Z,5.53
2023-06-10T08:40:38.203Z,7.40
2023-06-10T08:43:09.609Z,5.13
2023-06-10T08:45:38.102Z,6.32
2023-06-10T08:48:07.871Z,4.78
2023-06-10T08:50:39.131Z,6.13
2023-06-10T08:53:09.231Z,7.55
2023-06-10T08:55:43.056Z,6.07
2023-06-10T08:58:12.138Z,6.88
2023-06-10T09:00:39.279Z,7.90
2023-06-10T09:03:06.789Z,7.70
2023-06-10T09:05:37.825Z,8.48
2023-06-10T09:08:11.124Z,7.07
2023-06-10T09:10:37.966Z,8.10
2023-06-10T09:13:04.841Z,7.50
2023-06-10T09:15:31.705Z,9.15
2023-06-10T09:17:58.673Z,9.95
2023-06-10T09:20:25.668Z,12.63
2023-06-10T09:22:52.713Z,14.35
2023-06-10T09:25:19.504Z,15.10
2023-06-10T09:27:49.983Z,10.88
2023-06-10T09:30:36.250Z,9.25
2023-06-10T09:33:10.364Z,11.32
2023-06-10T09:35:37.252Z,9.90
2023-06-10T09:38:04.105Z,8.82
2023-06-10T09:40:30.910Z,8.35
2023-06-10T09:43:01.305Z,8.75
2023-06-10T09:45:35.101Z,8.02
2023-06-10T09:48:02.241Z,9.40
2023-06-10T09:50:29.394Z,9.77
2023-06-10T09:52:56.260Z,7.28
2023-06-10T09:55:23.396Z,7.85
2023-06-10T09:57:55.504Z,6.75
2023-06-10T10:00:23.969Z,6.53
2023-06-10T10:02:54.696Z,6.75
2023-06-10T10:05:23.544Z,8.07
2023-06-10T10:07:50.859Z,9.02
2023-06-10T10:10:19.852Z,8.07
2023-06-10T10:12:53.906Z,9.68
2023-06-10T10:15:22.560Z,9.55
2023-06-10T10:18:04.830Z,7.72
2023-06-10T10:20:35.605Z,8.98
2023-06-10T10:23:05.269Z,9.43
2023-06-10T10:25:37.277Z,8.88
2023-06-10T10:28:12.342Z,10.77
2023-06-10T10:30:41.569Z,11.45
2023-06-10T10:33:17.608Z,7.38
2023-06-10T10:35:44.823Z,10.50
2023-06-10T10:38:14.219Z,8.35
2023-06-10T10:40:42.504Z,8.38
2023-06-10T10:43:10.254Z,18.27
2023-06-10T10:45:37.018Z,10.00
2023-06-10T10:48:12.766Z,9.50
2023-06-10T10:50:40.270Z,12.27
2023-06-10T10:53:07.384Z,8.80
2023-06-10T10:55:34.679Z,9.55
2023-06-10T10:58:05.197Z,10.15
2023-06-10T11:00:44.877Z,10.25
2023-06-10T11:03:18.638Z,13.27
2023-06-10T11:05:51.108Z,12.07
2023-06-10T11:08:30.349Z,10.15
2023-06-10T11:10:57.444Z,9.73
2023-06-10T11:13:26.864Z,11.88
2023-06-10T11:15:58.639Z,11.00
2023-06-10T11:18:42.685Z,10.50
2023-06-10T11:21:09.475Z,8.32
2023-06-10T11:23:40.781Z,9.10
2023-06-10T11:26:23.550Z,9.68
2023-06-10T11:28:56.163Z,11.15
2023-06-10T11:31:24.789Z,9.15
2023-06-10T11:33:55.504Z,11.70
2023-06-10T11:36:26.170Z,11.77
2023-06-10T11:38:57.865Z,13.07
2023-06-10T11:41:30.060Z,10.85
2023-06-10T11:43:57.945Z,13.60
2023-06-10T11:46:25.004Z,11.15
2023-06-10T11:48:55.651Z,9.68
2023-06-10T11:51:23.065Z,11.05
2023-06-10T11:53:50.732Z,10.32
2023-06-10T11:56:35.645Z,8.38
2023-06-10T11:59:08.621Z,11.57
2023-06-10T12:01:44.640Z,9.77
2023-06-10T12:04:14.115Z,10.60
2023-06-10T12:06:43.024Z,8.32
2023-06-10T12:09:25.392Z,8.90
2023-06-10T12:12:00.454Z,9.68
2023-06-10T12:14:56.644Z,9.68
2023-06-10T12:17:34.291Z,8.70
2023-06-10T12:20:07.647Z,10.80
2023-06-10T12:22:43.358Z,7.20
2023-06-10T12:25:11.746Z,9.38
2023-06-10T12:27:39.991Z,14.02
2023-06-10T12:30:07.946Z,9.98
2023-06-10T12:32:46.976Z,8.88
2023-06-10T12:35:18.956Z,8.32
2023-06-10T12:38:08.252Z,9.30
2023-06-10T12:40:37.459Z,11.00
2023-06-10T12:43:04.480Z,10.05
2023-06-10T12:45:36.317Z,8.35
2023-06-10T12:48:12.298Z,9.52
2023-06-10T12:53:10.912Z,7.32
2023-06-10T12:55:38.239Z,7.80
2023-06-10T12:58:05.280Z,7.85
2023-06-10T13:00:32.505Z,9.02
2023-06-10T13:03:03.118Z,8.02
2023-06-10T13:05:30.850Z,5.72
2023-06-10T13:07:57.537Z,9.40
2023-06-10T13:10:25.985Z,8.25
2023-06-10T13:12:55.878Z,6.20
2023-06-10T13:15:23.107Z,6.72
2023-06-10T13:17:53.112Z,9.52
2023-06-10T13:20:22.016Z,8.30
2023-06-10T13:22:48.953Z,6.68
2023-06-10T13:25:16.175Z,6.97
2023-06-10T13:27:43.988Z,6.57
2023-06-10T13:30:12.045Z,6.50
2023-06-10T13:32:39.404Z,7.25
2023-06-10T13:35:06.653Z,7.30
2023-06-10T13:37:34.875Z,7.40
2023-06-10T13:40:03.203Z,6.35
2023-06-10T13:42:30.693Z,6.75
2023-06-10T13:44:57.898Z,7.70
2023-06-10T13:47:25.766Z,8.05
2023-06-10T13:49:52.639Z,7.53
2023-06-10T13:52:19.439Z,7.82
2023-06-10T13:54:46.260Z,8.35
2023-06-10T13:57:13.061Z,9.25
2023-06-10T13:59:39.747Z,6.38
2023-06-10T14:02:06.502Z,7.85
2023-06-10T14:04:33.836Z,7.22
2023-06-10T14:07:00.706Z,7.18
2023-06-10T14:09:27.507Z,7.78
2023-06-10T14:11:55.512Z,7.60
2023-06-10T14:14:23.555Z,8.55
2023-06-10T14:16:50.392Z,7.43
2023-06-10T14:19:17.202Z,8.48
2023-06-10T14:21:44.775Z,11.30
2023-06-10T14:24:11.547Z,6.90
2023-06-10T14:26:38.669Z,8.45
2023-06-10T14:29:05.754Z,9.20
2023-06-10T14:31:32.493Z,8.20
2023-06-10T14:33:59.810Z,7.03
2023-06-10T14:36:26.817Z,9.57
2023-06-10T14:38:54.701Z,7.63
2023-06-10T14:41:24.246Z,9.45
2023-06-10T14:43:50.924Z,8.88
2023-06-10T14:46:17.709Z,9.35
2023-06-10T14:48:44.581Z,7.18
2023-06-10T14:51:11.297Z,8.52
2023-06-10T14:53:38.011Z,10.20
2023-06-10T14:56:06.379Z,9.75
2023-06-10T14:58:33.051Z,9.65
2023-06-10T15:01:00.079Z,11.55
2023-06-10T15:03:26.952Z,9.18
2023-06-10T15:05:53.993Z,9.40
2023-06-10T15:08:20.725Z,9.38
2023-06-10T15:10:49.493Z,10.30
2023-06-10T15:13:16.216Z,9.23
2023-06-10T15:15:42.915Z,8.65
2023-06-10T15:18:09.722Z,9.80
2023-06-10T15:20:36.417Z,8.30
2023-06-10T15:23:03.144Z,7.72
2023-06-10T15:25:31.857Z,8.65
2023-06-10T15:27:59.343Z,7.60
2023-06-10T15:30:26.578Z,8.68
2023-06-10T15:32:53.643Z,9.15
2023-06-10T15:35:20.645Z,9.50
2023-06-10T15:37:47.424Z,9.43
2023-06-10T15:40:14.152Z,9.00
2023-06-10T15:42:40.999Z,8.98
2023-06-10T15:45:08.353Z,11.73
2023-06-10T15:47:35.626Z,9.45
2023-06-10T15:50:03.206Z,9.10
2023-06-10T15:52:29.967Z,9.60
2023-06-10T15:54:56.719Z,9.98
2023-06-10T15:57:25.840Z,9.80
2023-06-10T15:59:53.630Z,9.23
2023-06-10T16:02:20.646Z,9.45
2023-06-10T16:04:47.360Z,12.57
2023-06-10T16:07:14.213Z,8.80
2023-06-10T16:09:41.074Z,8.90
2023-06-10T16:12:08.316Z,9.27
2023-06-10T16:14:35.063Z,10.27
2023-06-10T16:17:02.090Z,10.70
2023-06-10T16:19:28.954Z,9.35
2023-06-10T16:21:55.870Z,11.23
2023-06-10T16:24:22.671Z,11.88
2023-06-10T16:26:49.758Z,10.38
2023-06-10T16:29:17.019Z,9.43
2023-06-10T16:31:43.847Z,11.75
2023-06-10T16:34:10.960Z,11.90
2023-06-10T16:36:37.717Z,11.90
2023-06-10T16:39:04.479Z,9.00
2023-06-10T16:41:31.205Z,9.50
2023-06-10T16:43:58.667Z,10.00
2023-06-10T16:46:27.189Z,10.30
2023-06-10T16:48:53.947Z,10.18
2023-06-10T16:51:20.664Z,12.95
2023-06-10T16:53:47.881Z,11.73
2023-06-10T16:56:14.533Z,9.82
2023-06-10T16:58:41.235Z,11.55
2023-06-10T17:01:10.013Z,11.32
2023-06-10T17:03:36.898Z,11.38
2023-06-10T17:06:03.775Z,10.05
2023-06-10T17:08:30.633Z,14.02
2023-06-10T17:10:57.294Z,13.77
2023-06-10T17:13:24.096Z,14.43
2023-06-10T17:15:52.429Z,11.95
2023-06-10T17:18:19.488Z,13.57
2023-06-10T17:20:46.399Z,13.07
2023-06-10T17:23:13.284Z,14.93
2023-06-10T17:25:39.973Z,14.30
2023-06-10T17:28:06.758Z,15.00
2023-06-10T17:30:33.690Z,10.77
2023-06-10T17:33:00.533Z,12.90
2023-06-10T17:35:27.361Z,12.10
2023-06-10T17:37:54.126Z,11.93
2023-06-10T17:40:21.006Z,16.67
2023-06-10T17:42:47.858Z,13.20
2023-06-10T17:45:14.683Z,16.15
2023-06-10T17:47:41.388Z,12.80
2023-06-10T17:50:08.580Z,13.07
2023-06-10T17:52:35.478Z,13.65
2023-06-10T17:55:02.228Z,12.38
2023-06-10T17:57:29.571Z,10.35
2023-06-10T17:59:56.483Z,14.02
2023-06-10T18:02:23.362Z,16.45
2023-06-10T18:04:50.144Z,25.60
2023-06-10T18:07:16.950Z,23.48
2023-06-10T18:09:44.033Z,22.60
2023-06-10T18:12:11.592Z,18.15
2023-06-10T18:14:48.489Z,12.68
2023-06-10T18:17:15.265Z,15.45
2023-06-10T18:19:41.969Z,15.25
2023-06-10T18:22:08.818Z,18.98
2023-06-10T18:24:35.575Z,14.68
2023-06-10T18:27:02.323Z,18.48
2023-06-10T18:29:29.153Z,14.13
2023-06-10T18:31:55.963Z,17.08
2023-06-10T18:34:22.778Z,18.83
2023-06-10T18:36:49.576Z,19.83
2023-06-10T18:39:16.520Z,17.73
2023-06-10T18:41:43.284Z,15.77
2023-06-10T18:44:10.004Z,16.33
2023-06-10T18:46:36.803Z,15.68
2023-06-10T18:49:03.765Z,15.52
2023-06-10T18:51:30.502Z,22.30
2023-06-10T18:53:57.363Z,16.15
2023-06-10T18:56:24.618Z,21.65
2023-06-10T18:58:51.650Z,19.00
2023-06-10T19:01:20.647Z,18.00
2023-06-10T19:03:48.911Z,17.02
2023-06-10T19:06:16.792Z,16.98
2023-06-10T19:08:43.473Z,15.68
2023-06-10T19:11:10.404Z,18.50
2023-06-10T19:13:37.210Z,16.67
2023-06-10T19:16:04.615Z,14.65
2023-06-10T19:18:31.296Z,15.70
2023-06-10T19:20:58.018Z,14.95
2023-06-10T19:23:24.739Z,12.57
2023-06-10T19:25:51.625Z,14.45
2023-06-10T19:28:18.532Z,16.38
2023-06-10T19:30:45.219Z,13.93
2023-06-10T19:33:12.418Z,13.13
2023-06-10T19:35:39.565Z,14.75
2023-06-10T19:38:06.262Z,13.38
2023-06-10T19:40:32.961Z,14.35
2023-06-10T19:42:59.729Z,17.13
2023-06-10T19:45:26.440Z,15.60
2023-06-10T19:47:53.213Z,14.85
2023-06-10T19:50:20.183Z,13.50
2023-06-10T19:52:47.001Z,14.00
2023-06-10T19:55:15.297Z,11.57
2023-06-10T19:57:42.087Z,13.52
2023-06-10T20:00:10.073Z,12.98
2023-06-10T20:02:37.037Z,13.68
2023-06-10T20:05:04.105Z,11.77
2023-06-10T20:07:31.213Z,12.15
2023-06-10T20:09:58.563Z,11.30
2023-06-10T20:12:25.253Z,10.27
2023-06-10T20:14:51.942Z,11.48
2023-06-10T20:17:18.633Z,11.68
2023-06-10T20:19:49.351Z,13.98
2023-06-10T20:22:17.281Z,13.40
2023-06-10T20:24:44.149Z,13.52
2023-06-10T20:27:11.512Z,11.63
2023-06-10T20:29:38.243Z,13.05
2023-06-10T20:32:05.270Z,14.20
2023-06-10T20:34:32.147Z,13.82
2023-06-10T20:36:59.059Z,12.43
2023-06-10T20:39:26.537Z,12.57
2023-06-10T20:41:53.294Z,11.93
2023-06-10T20:44:20.012Z,12.70
2023-06-10T20:46:46.718Z,11.98
2023-06-10T20:49:15.378Z,13.00
2023-06-10T20:51:42.343Z,11.52
2023-06-10T20:54:10.105Z,13.00
2023-06-10T20:56:36.845Z,11.90
2023-06-10T20:59:03.673Z,12.02
2023-06-10T21:01:30.535Z,11.75
2023-06-10T21:03:57.506Z,12.15
2023-06-10T21:06:25.356Z,9.65
2023-06-10T21:08:53.040Z,11.93
2023-06-10T21:11:19.983Z,12.70
2023-06-10T21:13:47.417Z,11.65
2023-06-10T21:16:14.256Z,12.50
2023-06-10T21:18:42.036Z,13.07
2023-06-10T21:21:08.816Z,11.68
2023-06-10T21:23:35.608Z,14.02
2023-06-10T21:26:05.812Z,12.70
2023-06-10T21:28:33.651Z,13.57
2023-06-10T21:31:00.515Z,12.88
2023-06-10T21:33:28.082Z,14.10
2023-06-10T21:35:54.966Z,11.88
2023-06-10T21:38:24.141Z,14.70
2023-06-10T21:40:55.232Z,11.25
2023-06-10T21:43:21.982Z,12.13
2023-06-10T21:45:48.662Z,11.68
2023-06-10T21:48:15.952Z,12.05
2023-06-10T21:50:42.651Z,11.43
2023-06-10T21:53:09.345Z,11.15
2023-06-10T21:55:36.082Z,10.25
2023-06-10T21:58:02.929Z,12.50
2023-06-10T22:00:29.896Z,11.20
2023-06-10T22:02:56.813Z,11.55
2023-06-10T22:05:27.146Z,16.20
2023-06-10T22:07:53.909Z,37.08
2023-06-10T22:10:20.748Z,29.58
2023-06-10T22:12:47.445Z,24.17
2023-06-10T22:15:14.906Z,22.67
2023-06-10T22:17:45.187Z,20.75
2023-06-10T22:20:12.819Z,20.33
2023-06-10T22:22:40.378Z,17.52
2023-06-10T22:25:07.866Z,22.65
2023-06-10T22:27:34.817Z,14.95
2023-06-10T22:30:02.241Z,20.13
2023-06-10T22:32:29.158Z,23.50
2023-06-10T22:34:55.913Z,16.02
2023-06-10T22:37:22.855Z,16.25
2023-06-10T22:39:49.609Z,14.52
2023-06-10T22:42:16.361Z,17.60
2023-06-10T22:44:44.005Z,16.75
2023-06-10T22:47:12.171Z,15.38
2023-06-10T22:49:38.853Z,17.67
2023-06-10T22:52:06.162Z,14.45
2023-06-10T22:54:33.119Z,13.38
2023-06-10T22:57:00.738Z,13.75
2023-06-10T22:59:27.540Z,12.65
2023-06-10T23:01:55.004Z,12.98
2023-06-10T23:04:21.844Z,12.85
2023-06-10T23:06:48.597Z,11.98
2023-06-10T23:09:15.728Z,13.30
2023-06-10T23:11:43.179Z,16.58
2023-06-10T23:14:10.847Z,22.10
2023-06-10T23:16:47.251Z,26.70
2023-06-10T23:19:19.251Z,24.25
2023-06-10T23:21:54.708Z,19.38
2023-06-10T23:24:30.655Z,17.27
2023-06-10T23:27:02.619Z,18.30
2023-06-10T23:29:29.669Z,19.02
2023-06-10T23:31:56.763Z,18.83
2023-06-10T23:34:23.883Z,17.13
2023-06-10T23:36:53.439Z,16.63
2023-06-10T23:39:20.583Z,16.98
2023-06-10T23:41:47.452Z,13.60
2023-06-10T23:44:14.431Z,10.88
2023-06-10T23:46:41.324Z,12.73
2023-06-10T23:49:10.119Z,14.38
2023-06-10T23:51:38.400Z,15.02
2023-06-10T23:54:09.924Z,14.52
2023-06-10T23:56:36.635Z,14.57
2023-06-10T23:59:03.353Z,11.65
